Time;durP1;ratioP1;P1;durP2;ratioP2;P2;SDS_P1;SDS_P2;PMS_P1;PMS_P2;Temp;Humidity;BMP_temperature;BMP_pressure;BME280_temperature;BME280_humidity;BME280_pressure;Samples;Min_cycle;Max_cycle;Signal;HPM_P1;HPM_P2
2023/07/17 00:01:35;;;;;;;15.35;11.50;;;16.50;99.90;;;;;;5000844;28;20190;-82
2023/07/17 00:04:01;;;;;;;15.07;9.95;;;16.50;99.90;;;;;;4994565;28;20052;-82
2023/07/17 00:06:27;;;;;;;16.75;12.43;;;16.40;99.90;;;;;;5015404;28;20121;-81
2023/07/17 00:08:52;;;;;;;15.55;12.52;;;16.40;99.90;;;;;;5000154;28;20188;-81
2023/07/17 00:11:18;;;;;;;14.13;12.48;;;16.40;99.90;;;;;;4999172;28;20025;-81
2023/07/17 00:13:43;;;;;;;12.13;9.02;;;16.40;99.90;;;;;;4998441;28;20422;-82
2023/07/17 00:16:09;;;;;;;14.85;11.20;;;16.40;99.90;;;;;;5015642;28;20250;-81
2023/07/17 00:18:35;;;;;;;14.93;10.95;;;16.40;99.90;;;;;;4998077;28;20093;-82
2023/07/17 00:21:01;;;;;;;16.17;12.05;;;16.40;99.90;;;;;;4971340;28;20121;-82
2023/07/17 00:23:27;;;;;;;13.60;12.00;;;16.40;99.90;;;;;;4997953;28;20038;-82
2023/07/17 00:25:53;;;;;;;16.77;12.90;;;16.40;99.90;;;;;;5015548;28;20041;-81
2023/07/17 00:28:18;;;;;;;13.02;10.55;;;16.50;99.90;;;;;;4982571;28;20476;-82
2023/07/17 00:30:44;;;;;;;13.30;11.23;;;16.50;99.90;;;;;;4999372;28;20393;-82
2023/07/17 00:33:10;;;;;;;13.73;11.45;;;16.50;99.90;;;;;;4990012;28;20182;-81
2023/07/17 00:35:35;;;;;;;15.43;11.30;;;16.50;99.90;;;;;;4988931;28;20144;-82
2023/07/17 00:38:02;;;;;;;13.18;9.00;;;16.50;99.90;;;;;;4988309;28;20037;-81
2023/07/17 00:40:27;;;;;;;11.57;9.82;;;16.60;99.90;;;;;;4987458;28;20384;-82
2023/07/17 00:43:00;;;;;;;15.25;13.80;;;16.60;99.90;;;;;;4989761;28;20047;-81
2023/07/17 00:45:31;;;;;;;16.02;10.55;;;16.60;99.90;;;;;;4999838;28;20045;-81
2023/07/17 00:47:57;;;;;;;16.63;10.80;;;16.60;99.90;;;;;;4998739;28;20088;-81
2023/07/17 00:50:23;;;;;;;15.82;11.70;;;16.60;99.90;;;;;;4990439;28;20136;-81
2023/07/17 00:52:49;;;;;;;20.00;13.02;;;16.60;99.90;;;;;;5004123;28;20512;-81
2023/07/17 00:55:15;;;;;;;19.05;12.88;;;16.60;99.90;;;;;;4987821;28;20396;-80
2023/07/17 00:57:41;;;;;;;20.15;12.77;;;16.60;99.90;;;;;;5004318;28;20038;-80
2023/07/17 01:00:08;;;;;;;13.75;11.95;;;16.60;99.90;;;;;;4987632;28;20052;-80
2023/07/17 01:02:37;;;;;;;16.27;10.38;;;16.60;99.90;;;;;;4988979;28;20064;-80
2023/07/17 01:05:03;;;;;;;15.95;9.02;;;16.60;99.90;;;;;;4988525;28;20125;-80
2023/07/17 01:07:29;;;;;;;15.80;11.55;;;16.60;99.90;;;;;;4988835;28;20109;-80
2023/07/17 01:09:54;;;;;;;16.08;12.35;;;16.60;99.90;;;;;;4988954;28;20054;-80
2023/07/17 01:12:20;;;;;;;14.70;9.30;;;16.60;99.90;;;;;;4987407;28;20130;-81
2023/07/17 01:14:47;;;;;;;18.85;12.50;;;16.50;99.90;;;;;;4987924;28;20038;-80
2023/07/17 01:17:13;;;;;;;15.73;11.05;;;16.50;99.90;;;;;;4987304;28;20058;-80
2023/07/17 01:19:38;;;;;;;15.25;11.10;;;16.60;99.90;;;;;;4989094;28;20487;-80
2023/07/17 01:22:22;;;;;;;18.70;12.60;;;16.50;99.90;;;;;;5007389;28;20050;-80
2023/07/17 01:24:47;;;;;;;20.05;10.95;;;16.50;99.90;;;;;;4990757;28;20046;-80
2023/07/17 01:27:13;;;;;;;19.17;11.73;;;16.40;99.90;;;;;;5005429;28;20415;-81
2023/07/17 01:29:39;;;;;;;19.80;12.70;;;16.40;99.90;;;;;;4990559;28;20048;-80
2023/07/17 01:32:05;;;;;;;19.52;16.38;;;16.40;99.90;;;;;;5006821;28;20030;-80
2023/07/17 01:34:30;;;;;;;18.02;15.57;;;16.30;99.90;;;;;;4991972;28;20109;-80
2023/07/17 01:36:56;;;;;;;18.90;12.45;;;16.30;99.90;;;;;;4992332;28;20046;-80
2023/07/17 01:39:24;;;;;;;17.50;14.52;;;16.20;99.90;;;;;;4992127;28;20042;-80
2023/07/17 01:41:50;;;;;;;15.25;12.80;;;16.20;99.90;;;;;;4974723;28;20042;-80
2023/07/17 01:44:15;;;;;;;19.27;12.13;;;16.20;99.90;;;;;;4990664;28;20512;-80
2023/07/17 01:46:41;;;;;;;14.13;10.77;;;16.10;99.90;;;;;;4990671;28;20050;-81
2023/07/17 01:49:07;;;;;;;13.15;10.55;;;16.10;99.90;;;;;;5007010;28;20042;-80
2023/07/17 01:51:33;;;;;;;15.73;11.93;;;16.00;99.90;;;;;;5010110;28;20065;-80
2023/07/17 01:53:59;;;;;;;20.25;13.60;;;16.00;99.90;;;;;;5010081;28;20069;-80
2023/07/17 01:56:24;;;;;;;16.48;12.82;;;16.00;99.90;;;;;;5009910;28;20049;-80
2023/07/17 01:58:50;;;;;;;15.52;12.07;;;15.90;99.90;;;;;;5009944;28;20038;-80
2023/07/17 02:01:16;;;;;;;12.95;7.72;;;15.90;99.90;;;;;;5011259;28;20121;-81
2023/07/17 02:03:41;;;;;;;12.63;7.75;;;15.90;99.90;;;;;;4994494;28;20501;-81
2023/07/17 02:06:07;;;;;;;11.88;9.98;;;15.80;99.90;;;;;;4992087;28;20038;-81
2023/07/17 02:08:33;;;;;;;13.35;8.95;;;15.80;99.90;;;;;;4974215;28;20034;-81
2023/07/17 02:10:59;;;;;;;13.15;7.63;;;15.80;99.90;;;;;;4991620;28;20084;-80
2023/07/17 02:13:25;;;;;;;11.35;9.02;;;15.70;99.90;;;;;;4991657;28;20178;-80
2023/07/17 02:15:51;;;;;;;11.60;7.72;;;15.70;99.90;;;;;;4990096;28;20299;-81
2023/07/17 02:18:16;;;;;;;9.25;6.80;;;15.70;99.90;;;;;;4986266;28;20085;-80
2023/07/17 02:20:47;;;;;;;12.02;8.98;;;15.60;99.90;;;;;;5009691;28;20088;-80
2023/07/17 02:23:13;;;;;;;14.23;8.35;;;15.60;99.90;;;;;;5009528;28;20050;-81
2023/07/17 02:25:39;;;;;;;8.95;7.97;;;15.50;99.90;;;;;;4993478;28;20052;-81
2023/07/17 02:28:04;;;;;;;10.48;9.52;;;15.50;99.90;;;;;;4993230;28;20375;-81
2023/07/17 02:30:30;;;;;;;12.73;8.48;;;15.50;99.90;;;;;;4992991;28;20042;-80
2023/07/17 02:32:55;;;;;;;14.57;9.15;;;15.40;99.90;;;;;;4996130;28;20073;-81
2023/07/17 02:35:21;;;;;;;11.75;8.73;;;15.40;99.90;;;;;;4991109;28;20042;-81
2023/07/17 02:37:47;;;;;;;11.95;9.30;;;15.50;99.90;;;;;;4991023;28;20509;-81
2023/07/17 02:40:13;;;;;;;11.02;8.15;;;15.50;99.90;;;;;;4990780;28;20070;-81
2023/07/17 02:42:39;;;;;;;11.57;8.52;;;15.40;99.90;;;;;;4989435;28;20050;-81
2023/07/17 02:45:08;;;;;;;11.90;9.13;;;15.30;99.90;;;;;;4990770;28;20053;-81
2023/07/17 02:47:34;;;;;;;10.93;9.35;;;15.30;99.90;;;;;;5000103;28;20042;-81
2023/07/17 02:49:59;;;;;;;9.88;7.45;;;15.20;99.90;;;;;;5010328;28;20042;-81
2023/07/17 02:52:25;;;;;;;10.25;8.43;;;15.20;99.90;;;;;;4992781;28;20103;-81
2023/07/17 02:54:50;;;;;;;15.50;8.77;;;15.20;99.90;;;;;;5010215;28;20177;-80
2023/07/17 02:57:16;;;;;;;15.45;9.07;;;15.20;99.90;;;;;;4992605;28;20034;-81
2023/07/17 02:59:42;;;;;;;13.30;8.18;;;15.30;99.90;;;;;;5008959;28;20377;-80
2023/07/17 03:02:08;;;;;;;12.73;7.68;;;15.10;99.90;;;;;;4999282;28;20191;-81
2023/07/17 03:04:34;;;;;;;10.07;7.30;;;15.10;99.90;;;;;;4990449;28;20655;-81
2023/07/17 03:06:59;;;;;;;12.90;8.20;;;15.10;99.90;;;;;;4989496;28;20315;-81
2023/07/17 03:09:26;;;;;;;14.23;8.07;;;15.10;99.90;;;;;;5005545;28;20074;-80
2023/07/17 03:11:52;;;;;;;11.73;7.40;;;15.00;99.90;;;;;;4988934;28;20042;-81
2023/07/17 03:14:18;;;;;;;9.52;8.05;;;15.00;99.90;;;;;;4973029;28;20041;-81
2023/07/17 03:16:43;;;;;;;12.98;8.32;;;15.00;99.90;;;;;;4998259;28;20088;-81
2023/07/17 03:19:09;;;;;;;11.93;6.30;;;14.90;99.90;;;;;;5008226;28;20057;-81
2023/07/17 03:21:35;;;;;;;19.60;12.43;;;14.90;99.90;;;;;;5010070;28;20074;-81
2023/07/17 03:24:01;;;;;;;10.52;8.85;;;14.90;99.90;;;;;;5009692;28;20069;-81
2023/07/17 03:26:27;;;;;;;12.68;11.35;;;14.90;99.90;;;;;;4992264;28;20045;-81
2023/07/17 03:28:53;;;;;;;10.63;7.60;;;14.90;99.90;;;;;;4992018;28;20037;-81
2023/07/17 03:31:19;;;;;;;12.60;7.35;;;15.00;99.90;;;;;;4999855;28;20053;-81
2023/07/17 03:33:44;;;;;;;12.20;8.30;;;14.90;99.90;;;;;;4989917;28;20035;-81
2023/07/17 03:36:10;;;;;;;11.52;9.13;;;14.90;99.90;;;;;;4988932;28;20041;-81
2023/07/17 03:38:35;;;;;;;14.75;9.40;;;14.80;99.90;;;;;;4972273;28;20038;-81
2023/07/17 03:41:01;;;;;;;13.50;8.13;;;14.90;99.90;;;;;;4972667;28;20515;-81
2023/07/17 03:43:27;;;;;;;13.95;7.85;;;14.90;99.90;;;;;;5004622;28;20200;-80
2023/07/17 03:45:53;;;;;;;9.93;6.60;;;14.90;99.90;;;;;;4993759;28;20117;-80
2023/07/17 03:48:18;;;;;;;13.25;8.48;;;14.90;99.90;;;;;;4977867;28;20190;-81
2023/07/17 03:50:44;;;;;;;15.68;8.90;;;15.00;99.90;;;;;;4972060;28;20392;-81
2023/07/17 03:53:10;;;;;;;13.98;7.97;;;14.80;99.90;;;;;;4988443;28;20034;-81
2023/07/17 03:55:38;;;;;;;13.45;7.40;;;14.90;99.90;;;;;;4987824;28;20140;-81
2023/07/17 03:58:06;;;;;;;12.88;7.43;;;14.90;99.90;;;;;;4971939;28;20049;-81
2023/07/17 04:00:32;;;;;;;12.48;8.07;;;14.80;99.90;;;;;;4995996;28;20078;-82
2023/07/17 04:02:58;;;;;;;13.25;8.93;;;14.80;99.90;;;;;;4992283;28;20119;-81
2023/07/17 04:05:24;;;;;;;14.18;8.32;;;14.80;99.90;;;;;;5007915;28;20092;-81
2023/07/17 04:07:50;;;;;;;14.55;8.90;;;14.80;99.90;;;;;;5009245;28;20056;-81
2023/07/17 04:10:16;;;;;;;14.38;7.75;;;14.70;99.90;;;;;;5008970;28;20124;-81
2023/07/17 04:12:42;;;;;;;14.50;10.15;;;14.80;99.90;;;;;;5007593;28;20107;-81
2023/07/17 04:15:08;;;;;;;14.70;8.25;;;14.80;99.90;;;;;;5005133;28;20034;-81
2023/07/17 04:17:34;;;;;;;13.55;7.75;;;14.80;99.90;;;;;;4971340;28;20054;-81
2023/07/17 04:20:00;;;;;;;17.38;9.13;;;14.80;99.90;;;;;;4988073;28;20296;-81
2023/07/17 04:22:25;;;;;;;13.13;7.72;;;14.90;99.90;;;;;;4987747;28;20128;-81
2023/07/17 04:24:51;;;;;;;12.05;7.75;;;14.90;99.90;;;;;;5000625;28;20414;-81
2023/07/17 04:27:16;;;;;;;11.00;7.70;;;15.00;99.90;;;;;;4991028;28;20052;-81
2023/07/17 04:29:42;;;;;;;13.98;8.50;;;15.10;99.90;;;;;;5008266;28;20049;-81
2023/07/17 04:32:08;;;;;;;13.85;7.85;;;15.10;99.90;;;;;;4991200;28;20042;-81
2023/07/17 04:34:33;;;;;;;11.88;7.38;;;15.20;99.90;;;;;;4990962;28;20042;-81
2023/07/17 04:37:00;;;;;;;13.45;7.55;;;15.20;99.90;;;;;;4991210;28;20095;-81
2023/07/17 04:39:26;;;;;;;10.82;8.25;;;15.30;99.90;;;;;;4991413;28;20078;-81
2023/07/17 04:41:52;;;;;;;14.40;8.68;;;15.30;99.90;;;;;;4971421;28;20089;-81
2023/07/17 04:44:18;;;;;;;14.75;9.25;;;15.40;99.90;;;;;;4987542;28;20373;-81
2023/07/17 04:46:44;;;;;;;15.07;10.38;;;15.40;99.90;;;;;;4971381;28;20034;-81
2023/07/17 04:49:09;;;;;;;16.33;9.90;;;15.40;99.90;;;;;;4971264;28;20038;-81
2023/07/17 04:51:35;;;;;;;12.43;9.35;;;15.50;99.90;;;;;;4988076;28;20188;-81
2023/07/17 04:54:01;;;;;;;15.52;8.55;;;15.60;99.90;;;;;;5002966;28;20111;-81
2023/07/17 04:56:26;;;;;;;13.30;9.38;;;15.70;99.90;;;;;;5007017;28;20448;-81
2023/07/17 04:58:53;;;;;;;17.05;9.95;;;15.70;99.90;;;;;;4990429;28;20515;-81
2023/07/17 05:01:18;;;;;;;16.13;10.52;;;15.80;99.90;;;;;;5007248;28;20038;-81
2023/07/17 05:03:44;;;;;;;16.90;11.02;;;15.90;99.90;;;;;;5007108;28;20034;-81
2023/07/17 05:06:10;;;;;;;15.77;10.15;;;15.80;99.90;;;;;;5007351;28;20038;-81
2023/07/17 05:08:35;;;;;;;15.02;10.50;;;15.90;99.90;;;;;;4997185;28;20038;-81
2023/07/17 05:11:04;;;;;;;17.02;10.40;;;15.90;99.90;;;;;;4974759;28;20051;-80
2023/07/17 05:13:30;;;;;;;13.77;10.35;;;16.00;99.90;;;;;;4976342;28;20583;-81
2023/07/17 05:15:56;;;;;;;14.75;11.00;;;16.10;99.90;;;;;;4990745;28;20070;-80
2023/07/17 05:18:22;;;;;;;19.73;10.98;;;16.10;99.90;;;;;;4974357;28;20423;-81
2023/07/17 05:20:49;;;;;;;16.88;10.82;;;16.20;99.90;;;;;;5006730;28;20060;-82
2023/07/17 05:23:15;;;;;;;14.73;10.07;;;16.40;99.90;;;;;;5002827;28;20514;-81
2023/07/17 05:25:50;;;;;;;17.30;11.70;;;17.30;99.90;;;;;;5010203;28;20218;-82
2023/07/17 05:28:15;;;;;;;10.55;5.18;;;18.40;99.90;;;;;;5019669;28;20041;-82
2023/07/17 05:30:41;;;;;;;16.73;4.15;;;19.40;99.90;;;;;;5002321;28;20124;-82
2023/07/17 05:33:07;;;;;;;11.93;4.18;;;20.30;99.90;;;;;;5007579;28;20053;-82
2023/07/17 05:35:32;;;;;;;8.43;3.60;;;21.10;99.90;;;;;;5019415;28;20084;-82
2023/07/17 05:37:58;;;;;;;9.60;3.78;;;21.20;99.90;;;;;;5024444;28;20037;-82
2023/07/17 05:40:24;;;;;;;12.88;3.97;;;21.60;99.90;;;;;;5029452;28;20129;-83
2023/07/17 05:42:50;;;;;;;12.10;4.35;;;21.50;99.90;;;;;;5031220;28;20487;-82
2023/07/17 05:45:15;;;;;;;11.27;4.53;;;21.20;99.90;;;;;;5030227;28;20044;-82
2023/07/17 05:47:41;;;;;;;12.52;4.45;;;20.60;99.90;;;;;;5013924;28;20037;-82
2023/07/17 05:50:08;;;;;;;12.13;3.92;;;20.90;99.90;;;;;;5013383;28;20038;-82
2023/07/17 05:52:34;;;;;;;8.90;4.13;;;21.30;99.90;;;;;;5017920;28;20034;-82
2023/07/17 05:54:59;;;;;;;13.00;4.50;;;21.30;99.90;;;;;;5011184;28;20175;-82
2023/07/17 05:57:25;;;;;;;12.13;4.22;;;21.80;99.90;;;;;;5010166;28;20490;-82
2023/07/17 05:59:51;;;;;;;13.48;5.18;;;22.80;99.90;;;;;;5012488;28;20180;-82
2023/07/17 06:02:16;;;;;;;11.75;3.75;;;23.60;99.90;;;;;;5017274;28;20033;-82
2023/07/17 06:04:42;;;;;;;11.27;3.88;;;24.70;99.90;;;;;;5019079;28;20037;-82
2023/07/17 06:07:08;;;;;;;7.53;4.00;;;25.40;99.90;;;;;;5018177;28;20041;-82
2023/07/17 06:09:37;;;;;;;12.05;4.93;;;25.60;99.90;;;;;;5028150;28;20504;-81
2023/07/17 06:12:02;;;;;;;12.20;4.28;;;25.20;99.90;;;;;;5030970;28;20042;-82
2023/07/17 06:14:28;;;;;;;11.35;4.72;;;25.60;99.90;;;;;;5013046;28;20041;-82
2023/07/17 06:16:54;;;;;;;7.78;3.70;;;26.10;99.90;;;;;;5029623;28;20431;-82
2023/07/17 06:19:19;;;;;;;9.68;5.00;;;26.30;99.80;;;;;;5029607;28;20495;-81
2023/07/17 06:21:48;;;;;;;9.63;7.38;;;26.70;99.50;;;;;;5021040;28;20041;-81
2023/07/17 06:24:13;;;;;;;13.15;8.15;;;26.90;98.60;;;;;;4992868;28;20130;-83
2023/07/17 06:26:39;;;;;;;12.98;7.35;;;27.20;98.30;;;;;;4993561;28;20129;-81
2023/07/17 06:29:09;;;;;;;11.40;10.07;;;27.50;97.70;;;;;;5009698;28;20674;-82
2023/07/17 06:31:35;;;;;;;9.05;4.22;;;27.70;97.10;;;;;;5010221;28;20465;-82
2023/07/17 06:34:00;;;;;;;34.85;32.22;;;28.20;96.80;;;;;;4993215;28;20092;-82
2023/07/17 06:36:26;;;;;;;84.35;79.32;;;28.70;96.50;;;;;;5001725;28;20027;-82
2023/07/17 06:38:52;;;;;;;130.82;123.00;;;28.80;95.70;;;;;;4973649;28;20504;-82
2023/07/17 06:41:18;;;;;;;117.40;110.40;;;28.60;95.90;;;;;;4991052;28;20041;-82
2023/07/17 06:43:43;;;;;;;159.57;150.43;;;27.80;95.90;;;;;;4989977;28;20049;-82
2023/07/17 06:46:09;;;;;;;141.88;133.27;;;26.90;96.50;;;;;;4990085;28;20042;-81
2023/07/17 06:48:35;;;;;;;167.35;157.27;;;26.30;97.00;;;;;;4995558;28;20037;-81
2023/07/17 06:51:02;;;;;;;132.75;124.80;;;26.30;97.00;;;;;;5015543;28;20038;-81
2023/07/17 06:53:29;;;;;;;130.82;123.30;;;26.60;97.30;;;;;;5014266;28;20488;-82
2023/07/17 06:55:59;;;;;;;162.27;152.57;;;27.00;97.30;;;;;;5019081;28;20087;-82
2023/07/17 06:58:25;;;;;;;200.95;188.93;;;27.60;96.40;;;;;;5027760;28;20103;-82
2023/07/17 07:00:58;;;;;;;97.32;91.03;;;27.80;96.80;;;;;;5028224;28;20041;-82
2023/07/17 07:03:24;;;;;;;;;;;28.40;95.30;;;;;;5028755;28;20038;-82
2023/07/17 07:05:55;;;;;;;216.77;201.55;;;28.50;94.70;;;;;;5019919;28;19917;-82
2023/07/17 07:08:25;;;;;;;265.45;247.98;;;28.20;95.50;;;;;;4991929;28;20045;-82
2023/07/17 07:10:52;;;;;;;374.58;346.70;;;28.30;96.20;;;;;;4991873;28;20038;-82
2023/07/17 07:13:19;;;;;;;480.13;443.75;;;28.40;95.10;;;;;;4992059;28;20041;-82
2023/07/17 07:15:45;;;;;;;506.25;468.50;;;28.20;95.30;;;;;;5008700;28;20042;-82
2023/07/17 07:18:10;;;;;;;363.25;338.77;;;27.10;95.50;;;;;;5007925;28;20050;-82
2023/07/17 07:20:36;;;;;;;247.60;232.38;;;26.20;96.20;;;;;;5000560;28;20138;-81
2023/07/17 07:23:02;;;;;;;243.10;228.57;;;25.80;96.70;;;;;;5004344;28;20522;-81
2023/07/17 07:25:27;;;;;;;123.28;115.82;;;24.90;97.30;;;;;;4990064;28;20053;-81
2023/07/17 07:27:53;;;;;;;65.55;60.90;;;24.50;98.20;;;;;;5000182;28;20065;-81
2023/07/17 07:30:19;;;;;;;40.03;37.17;;;24.30;98.80;;;;;;5007011;28;20046;-82
2023/07/17 07:32:45;;;;;;;39.92;37.38;;;24.40;98.60;;;;;;5007968;28;20116;-81
2023/07/17 07:35:10;;;;;;;15.75;12.50;;;24.20;98.50;;;;;;5007685;28;20464;-81
2023/07/17 07:37:37;;;;;;;17.70;15.82;;;23.80;99.20;;;;;;4991462;28;20111;-81
2023/07/17 07:40:06;;;;;;;18.40;16.58;;;23.90;99.90;;;;;;5021531;28;20120;-81
2023/07/17 07:42:32;;;;;;;23.23;21.05;;;24.80;99.30;;;;;;5028858;28;20041;-81
2023/07/17 07:44:58;;;;;;;36.13;33.65;;;25.40;98.70;;;;;;5027525;28;20036;-82
2023/07/17 07:47:24;;;;;;;44.30;41.22;;;25.70;98.70;;;;;;4999205;28;20053;-81
2023/07/17 07:49:50;;;;;;;38.75;35.90;;;25.80;97.60;;;;;;5006908;28;20034;-81
2023/07/17 07:52:16;;;;;;;55.33;51.28;;;25.10;97.90;;;;;;5007447;28;20128;-82
2023/07/17 07:54:43;;;;;;;26.38;23.95;;;24.50;97.60;;;;;;5007724;28;20185;-82
2023/07/17 07:57:09;;;;;;;14.07;8.73;;;23.80;98.20;;;;;;5008890;28;20034;-81
2023/07/17 07:59:34;;;;;;;10.60;5.35;;;23.40;99.40;;;;;;5009041;28;20121;-81
2023/07/17 08:02:00;;;;;;;14.88;8.07;;;23.80;99.90;;;;;;5007823;28;20049;-81
2023/07/17 08:04:27;;;;;;;11.95;6.80;;;24.10;99.90;;;;;;5004720;28;20030;-82
2023/07/17 08:06:53;;;;;;;12.65;6.60;;;23.80;99.90;;;;;;4988028;28;20392;-82
2023/07/17 08:09:18;;;;;;;23.27;7.32;;;23.20;99.90;;;;;;4988216;28;20108;-82
2023/07/17 08:11:44;;;;;;;15.88;5.88;;;22.40;99.90;;;;;;5004962;28;20046;-82
2023/07/17 08:14:10;;;;;;;10.52;6.03;;;21.70;99.90;;;;;;4988365;28;20042;-81
2023/07/17 08:16:35;;;;;;;12.90;5.97;;;21.00;99.90;;;;;;5004658;28;20050;-81
2023/07/17 08:19:01;;;;;;;11.88;6.45;;;20.50;99.90;;;;;;4991662;28;20054;-82
2023/07/17 08:21:27;;;;;;;13.73;6.50;;;20.40;99.90;;;;;;5007187;28;20435;-81
2023/07/17 08:23:52;;;;;;;11.48;6.40;;;20.60;99.90;;;;;;5009341;28;20037;-80
2023/07/17 08:26:18;;;;;;;13.82;7.68;;;20.70;99.90;;;;;;5009405;28;20034;-80
2023/07/17 08:28:44;;;;;;;16.52;6.57;;;21.30;99.90;;;;;;5007651;28;20048;-80
2023/07/17 08:31:09;;;;;;;12.25;6.53;;;22.50;99.90;;;;;;5012684;28;20479;-80
2023/07/17 08:33:36;;;;;;;12.70;6.68;;;23.20;99.90;;;;;;5021820;28;20097;-80
2023/07/17 08:36:02;;;;;;;13.10;6.15;;;24.00;99.90;;;;;;5008563;28;20050;-80
2023/07/17 08:38:28;;;;;;;10.30;6.18;;;25.00;99.90;;;;;;5008876;28;20030;-81
2023/07/17 08:40:54;;;;;;;11.95;6.60;;;25.90;99.90;;;;;;5008805;28;20040;-80
2023/07/17 08:43:21;;;;;;;13.52;6.07;;;26.30;99.90;;;;;;5003645;28;20041;-81
2023/07/17 08:45:47;;;;;;;14.60;8.52;;;25.80;99.90;;;;;;5031582;28;20111;-81
2023/07/17 08:48:14;;;;;;;14.85;7.65;;;24.90;99.90;;;;;;5030484;28;20042;-80
2023/07/17 08:50:41;;;;;;;13.00;8.40;;;24.10;99.90;;;;;;4991484;28;20042;-80
2023/07/17 08:53:07;;;;;;;17.38;7.00;;;23.50;99.90;;;;;;5021840;28;20095;-80
2023/07/17 08:55:33;;;;;;;11.38;6.35;;;23.00;99.90;;;;;;5026946;28;20103;-80
2023/07/17 08:58:03;;;;;;;11.68;5.82;;;22.30;99.90;;;;;;5032324;28;20503;-80
2023/07/17 09:00:32;;;;;;;14.82;6.22;;;22.00;99.90;;;;;;5014481;28;20589;-81
2023/07/17 09:02:58;;;;;;;11.63;6.30;;;22.00;99.90;;;;;;5030131;28;20045;-81
2023/07/17 09:05:24;;;;;;;10.73;4.85;;;22.30;99.90;;;;;;5010653;28;20069;-81
2023/07/17 09:07:50;;;;;;;8.95;5.53;;;22.60;99.90;;;;;;5011615;28;20053;-81
2023/07/17 09:10:21;;;;;;;9.50;5.75;;;22.70;99.90;;;;;;5017539;28;20034;-80
2023/07/17 09:12:55;;;;;;;9.68;4.50;;;22.50;99.90;;;;;;5022454;28;20041;-81
2023/07/17 09:15:21;;;;;;;8.93;5.03;;;22.20;99.90;;;;;;5019103;28;20125;-81
2023/07/17 09:17:47;;;;;;;10.80;3.88;;;21.80;99.90;;;;;;5010108;28;20050;-81
2023/07/17 09:20:14;;;;;;;10.48;4.47;;;21.50;99.90;;;;;;4974495;28;20506;-81
2023/07/17 09:22:41;;;;;;;12.35;4.20;;;21.30;99.90;;;;;;4991564;28;20416;-80
2023/07/17 09:25:07;;;;;;;11.23;4.80;;;21.70;99.90;;;;;;4991344;28;20046;-81
2023/07/17 09:27:50;;;;;;;11.73;8.07;;;22.20;99.90;;;;;;4996509;28;20045;-81
2023/07/17 09:30:22;;;;;;;12.75;9.18;;;22.70;99.90;;;;;;5011844;28;20057;-82
2023/07/17 09:32:49;;;;;;;10.60;8.23;;;23.50;99.90;;;;;;5004138;28;20049;-80
2023/07/17 09:35:20;;;;;;;13.40;6.57;;;24.00;99.90;;;;;;4979257;28;20125;-81
2023/07/17 09:37:46;;;;;;;10.00;7.88;;;24.60;99.90;;;;;;5027438;28;20111;-82
2023/07/17 09:40:13;;;;;;;7.78;4.30;;;24.70;99.60;;;;;;5003027;28;20506;-81
2023/07/17 09:42:45;;;;;;;13.43;7.18;;;24.80;99.60;;;;;;5008574;28;20046;-83
2023/07/17 09:45:11;;;;;;;10.85;7.30;;;24.80;99.20;;;;;;4994651;28;20042;-81
2023/07/17 09:47:39;;;;;;;10.55;8.18;;;24.40;99.30;;;;;;5010504;28;20514;-81
2023/07/17 09:50:13;;;;;;;12.48;7.70;;;24.30;99.30;;;;;;4993321;28;20288;-82
2023/07/17 09:52:42;;;;;;;12.20;7.40;;;24.40;99.80;;;;;;4993872;28;20052;-82
2023/07/17 09:55:09;;;;;;;13.55;8.40;;;24.40;98.80;;;;;;5010025;28;20427;-81
2023/07/17 09:57:36;;;;;;;9.75;6.90;;;24.00;98.90;;;;;;5010657;28;20122;-84
2023/07/17 10:00:17;;;;;;;8.57;7.65;;;23.50;99.40;;;;;;4995102;28;20057;-82
2023/07/17 10:03:28;;;;;;;13.68;7.82;;;23.00;99.50;;;;;;5009227;28;20057;-83
2023/07/17 10:05:57;;;;;;;11.02;8.48;;;22.70;99.90;;;;;;5011574;28;20038;-83
2023/07/17 10:08:25;;;;;;;10.02;8.45;;;22.50;99.90;;;;;;4994194;28;20038;-83
2023/07/17 10:10:51;;;;;;;10.18;7.82;;;22.80;99.90;;;;;;5011820;28;20042;-82
2023/07/17 10:13:17;;;;;;;10.80;8.55;;;23.00;99.90;;;;;;5011110;28;20038;-82
2023/07/17 10:15:43;;;;;;;7.65;4.43;;;23.20;99.90;;;;;;4993600;28;20042;-81
2023/07/17 10:18:11;;;;;;;10.63;4.50;;;23.40;99.90;;;;;;4996712;28;20393;-80
2023/07/17 10:20:40;;;;;;;13.07;5.40;;;23.30;99.50;;;;;;4989719;28;20050;-81
2023/07/17 10:23:22;;;;;;;9.63;3.30;;;23.40;99.70;;;;;;4989897;28;20129;-80
2023/07/17 10:25:49;;;;;;;9.13;3.60;;;23.60;99.80;;;;;;4989790;28;20061;-80
2023/07/17 10:28:14;;;;;;;7.40;3.00;;;23.90;99.90;;;;;;4991138;28;20082;-80
2023/07/17 10:30:48;;;;;;;7.75;4.05;;;24.10;99.00;;;;;;4989490;28;20055;-81
2023/07/17 10:33:19;;;;;;;10.05;4.05;;;24.00;97.70;;;;;;4990423;28;20043;-81
2023/07/17 10:35:53;;;;;;;12.80;5.18;;;24.00;98.00;;;;;;4998064;28;20093;-81
2023/07/17 10:38:30;;;;;;;9.02;5.50;;;24.00;98.30;;;;;;4993450;28;20041;-80
2023/07/17 10:41:13;;;;;;;6.57;4.85;;;23.70;97.50;;;;;;4993122;28;20053;-80
2023/07/17 10:44:01;;;;;;;6.35;5.47;;;23.60;98.40;;;;;;5009440;28;20045;-80
2023/07/17 10:46:34;;;;;;;7.45;6.22;;;23.60;97.90;;;;;;4991851;28;20650;-81
2023/07/17 10:49:10;;;;;;;9.88;8.00;;;23.70;97.10;;;;;;5009556;28;20041;-83
2023/07/17 10:51:47;;;;;;;10.88;9.38;;;23.70;96.50;;;;;;5009650;28;20439;-80
2023/07/17 10:54:14;;;;;;;11.73;10.43;;;24.00;98.10;;;;;;5009496;28;20096;-81
2023/07/17 10:56:45;;;;;;;11.90;10.80;;;24.00;98.00;;;;;;4992958;28;20041;-81
2023/07/17 10:59:11;;;;;;;11.65;10.50;;;24.10;97.40;;;;;;4993261;28;20038;-81
2023/07/17 11:01:37;;;;;;;15.23;13.93;;;24.20;97.90;;;;;;5010087;28;20399;-81
2023/07/17 11:04:07;;;;;;;17.33;15.52;;;24.40;97.90;;;;;;4993052;28;20099;-82
2023/07/17 11:06:33;;;;;;;5.65;2.83;;;24.70;97.80;;;;;;4992783;28;20065;-82
2023/07/17 11:08:59;;;;;;;10.52;7.20;;;24.80;96.80;;;;;;5008941;28;20034;-81
2023/07/17 11:11:25;;;;;;;9.25;7.72;;;25.00;96.30;;;;;;5009889;28;20038;-81
2023/07/17 11:13:52;;;;;;;5.63;2.92;;;25.10;96.70;;;;;;4991798;28;20037;-81
2023/07/17 11:16:21;;;;;;;14.73;12.90;;;25.00;95.40;;;;;;4992075;28;20038;-81
2023/07/17 11:18:49;;;;;;;7.45;4.72;;;25.00;96.00;;;;;;5008574;28;20077;-80
2023/07/17 11:21:21;;;;;;;7.75;3.45;;;25.10;96.40;;;;;;5008967;28;20044;-81
2023/07/17 11:23:51;;;;;;;7.03;3.42;;;25.00;96.10;;;;;;4992415;28;20045;-81
2023/07/17 11:26:20;;;;;;;7.68;6.05;;;25.10;95.60;;;;;;5009770;28;20046;-81
2023/07/17 11:28:54;;;;;;;21.92;20.25;;;25.00;95.20;;;;;;5008214;28;20110;-81
2023/07/17 11:31:24;;;;;;;8.60;6.68;;;24.90;94.80;;;;;;5005753;28;20038;-81
2023/07/17 11:34:00;;;;;;;9.70;7.13;;;24.80;95.50;;;;;;4992494;28;20135;-80
2023/07/17 11:36:42;;;;;;;14.73;13.35;;;24.70;95.30;;;;;;5008495;28;20042;-81
2023/07/17 11:39:13;;;;;;;10.57;5.95;;;24.40;95.40;;;;;;4992034;28;20088;-81
2023/07/17 11:41:48;;;;;;;6.22;4.05;;;24.30;96.30;;;;;;5008514;28;20041;-81
2023/07/17 11:44:15;;;;;;;27.15;25.17;;;24.30;95.70;;;;;;4991089;28;20063;-81
2023/07/17 11:46:42;;;;;;;21.60;19.75;;;24.20;95.90;;;;;;5007550;28;20052;-81
2023/07/17 11:49:08;;;;;;;9.30;3.58;;;24.30;96.70;;;;;;5009016;28;20126;-81
2023/07/17 11:51:41;;;;;;;7.13;3.55;;;24.40;96.00;;;;;;4991442;28;20061;-82
2023/07/17 11:54:10;;;;;;;9.60;3.53;;;24.40;96.00;;;;;;4991626;28;20256;-82
2023/07/17 11:56:42;;;;;;;7.57;4.03;;;24.40;95.90;;;;;;4992042;28;20108;-83
2023/07/17 11:59:26;;;;;;;7.50;4.53;;;24.40;96.10;;;;;;5007332;28;20402;-81
2023/07/17 12:01:52;;;;;;;11.80;10.65;;;24.50;96.20;;;;;;4989133;28;20073;-82
2023/07/17 12:04:23;;;;;;;9.68;7.10;;;24.60;96.60;;;;;;4971513;28;20544;-82
2023/07/17 12:06:49;;;;;;;10.65;5.43;;;24.80;96.50;;;;;;5004414;28;20400;-82
2023/07/17 12:09:15;;;;;;;8.52;7.22;;;24.90;96.00;;;;;;4972527;28;20050;-82
2023/07/17 12:11:43;;;;;;;9.88;7.43;;;24.90;96.80;;;;;;4988249;28;20057;-82
2023/07/17 12:14:10;;;;;;;10.52;7.43;;;25.00;96.10;;;;;;4990788;28;20519;-81
2023/07/17 12:16:35;;;;;;;9.65;7.28;;;24.90;96.20;;;;;;4990713;28;20030;-81
2023/07/17 12:19:03;;;;;;;9.90;8.68;;;24.80;96.30;;;;;;5007737;28;20452;-82
2023/07/17 12:21:28;;;;;;;6.57;4.70;;;24.70;96.20;;;;;;5008152;28;20100;-81
2023/07/17 12:23:54;;;;;;;22.10;20.50;;;24.80;96.50;;;;;;5008203;28;20041;-82
2023/07/17 12:26:20;;;;;;;49.25;46.35;;;25.00;95.50;;;;;;4991255;28;20480;-82
2023/07/17 12:28:45;;;;;;;57.78;54.30;;;25.10;94.80;;;;;;4989304;28;20620;-82
2023/07/17 12:31:11;;;;;;;48.50;45.55;;;25.10;94.70;;;;;;4971883;28;20046;-82
2023/07/17 12:33:37;;;;;;;104.55;98.68;;;25.30;94.40;;;;;;4972251;28;20545;-81